Time;durP1;ratioP1;P1;durP2;ratioP2;P2;SDS_P1;SDS_P2;PMS_P1;PMS_P2;Temp;Humidity;BMP_temperature;BMP_pressure;BME280_temperature;BME280_humidity;BME280_pressure;Samples;Min_cycle;Max_cycle;Signal;HPM_P1;HPM_P2
2022/04/29 00:00:53;;;;;;;10.10;2.45;;;;;;;5.34;100.00;102631.50;4886786;29;20048;-80
2022/04/29 00:03:21;;;;;;;12.90;2.65;;;;;;;5.40;100.00;102631.03;4887893;29;20163;-80
2022/04/29 00:05:47;;;;;;;13.75;2.95;;;;;;;5.40;100.00;102627.53;4882847;29;20048;-81
2022/04/29 00:08:13;;;;;;;16.00;3.00;;;;;;;5.35;100.00;102619.00;4885929;29;20452;-80
2022/04/29 00:10:40;;;;;;;13.30;2.92;;;;;;;5.36;100.00;102624.25;4893739;29;20025;-81
2022/04/29 00:13:07;;;;;;;15.15;3.00;;;;;;;5.25;100.00;102610.03;4889431;29;20021;-81
2022/04/29 00:15:33;;;;;;;16.70;3.40;;;;;;;5.35;100.00;102622.53;4883599;29;20018;-81
2022/04/29 00:17:59;;;;;;;15.75;3.45;;;;;;;5.36;100.00;102615.34;4889081;29;20030;-80
2022/04/29 00:20:24;;;;;;;20.48;3.30;;;;;;;5.29;100.00;102612.31;4891683;29;20148;-80
2022/04/29 00:22:50;;;;;;;13.40;4.25;;;;;;;5.27;100.00;102606.28;4884635;29;20140;-80
2022/04/29 00:25:15;;;;;;;18.67;5.97;;;;;;;5.42;100.00;102612.22;4884254;29;20084;-80
2022/04/29 00:27:41;;;;;;;19.90;5.32;;;;;;;5.53;100.00;102622.91;4887881;29;20374;-81
2022/04/29 00:30:11;;;;;;;19.23;5.22;;;;;;;5.57;100.00;102616.34;4888030;29;20033;-81
2022/04/29 00:32:38;;;;;;;10.25;2.50;;;;;;;5.35;100.00;102611.00;4887269;29;20048;-80
2022/04/29 00:35:05;;;;;;;12.70;3.42;;;;;;;5.21;100.00;102616.56;4887145;29;20079;-80
2022/04/29 00:37:30;;;;;;;23.63;5.00;;;;;;;5.12;100.00;102599.44;4884918;29;20029;-80
2022/04/29 00:39:56;;;;;;;22.30;5.70;;;;;;;5.28;100.00;102602.63;4886835;29;20044;-81
2022/04/29 00:42:22;;;;;;;27.15;5.85;;;;;;;5.47;100.00;102620.72;4885125;29;20048;-80
2022/04/29 00:44:48;;;;;;;17.33;4.57;;;;;;;5.50;100.00;102624.97;4887542;29;20021;-81
2022/04/29 00:47:16;;;;;;;20.60;5.38;;;;;;;5.46;100.00;102613.66;4888487;29;20035;-81
2022/04/29 00:49:43;;;;;;;25.25;5.35;;;;;;;5.34;100.00;102595.97;4887518;29;20424;-81
2022/04/29 00:52:15;;;;;;;21.88;4.78;;;;;;;5.31;100.00;102590.88;4890880;29;20053;-80
2022/04/29 00:54:42;;;;;;;25.30;5.80;;;;;;;5.44;100.00;102622.78;4887821;29;20029;-81
2022/04/29 00:57:12;;;;;;;28.38;5.97;;;;;;;5.52;100.00;102610.50;4889135;29;20051;-81
2022/04/29 00:59:59;;;;;;;31.20;6.47;;;;;;;5.73;100.00;102610.63;4890722;29;20029;-80
2022/04/29 01:02:24;;;;;;;26.08;6.70;;;;;;;5.73;100.00;102591.94;4889437;29;20029;-81
2022/04/29 01:05:13;;;;;;;32.53;6.80;;;;;;;6.02;100.00;102600.28;4887384;29;20052;-81
2022/04/29 01:07:40;;;;;;;23.55;4.95;;;;;;;6.11;100.00;102609.38;4883912;29;20040;-81
2022/04/29 01:10:08;;;;;;;17.42;3.53;;;;;;;5.54;100.00;102562.34;4886724;29;20432;-81
2022/04/29 01:12:37;;;;;;;15.85;3.10;;;;;;;5.27;100.00;102602.75;4885373;29;20028;-81
2022/04/29 01:15:05;;;;;;;17.33;3.58;;;;;;;5.13;100.00;102607.34;4892135;29;20054;-81
2022/04/29 01:17:35;;;;;;;11.35;3.33;;;;;;;5.14;100.00;102597.53;4889804;29;20359;-80
2022/04/29 01:20:06;;;;;;;20.00;4.57;;;;;;;5.25;100.00;102586.84;4898939;29;20056;-81
2022/04/29 01:22:32;;;;;;;15.60;3.30;;;;;;;5.25;100.00;102586.00;4885615;29;20155;-81
2022/04/29 01:24:58;;;;;;;17.00;4.10;;;;;;;5.44;100.00;102599.59;4886713;29;20036;-81
2022/04/29 01:27:23;;;;;;;19.83;4.30;;;;;;;5.35;100.00;102601.16;4884231;29;20511;-80
2022/04/29 01:29:58;;;;;;;26.98;4.97;;;;;;;5.44;100.00;102604.94;4863896;29;20096;-81
2022/04/29 01:32:26;;;;;;;16.30;4.57;;;;;;;5.46;100.00;102607.47;4889728;29;20074;-80
2022/04/29 01:34:51;;;;;;;15.13;3.67;;;;;;;5.14;100.00;102579.69;4883267;29;20036;-81
2022/04/29 01:37:16;;;;;;;17.80;5.25;;;;;;;5.07;100.00;102572.28;4887505;29;20479;-81
2022/04/29 01:39:42;;;;;;;21.63;5.00;;;;;;;5.32;100.00;102600.56;4887728;29;20031;-80
2022/04/29 01:42:07;;;;;;;15.50;3.67;;;;;;;4.88;100.00;102532.84;4890953;29;20059;-80
2022/04/29 01:44:34;;;;;;;23.33;4.57;;;;;;;5.12;100.00;102586.09;4893299;29;20467;-80
2022/04/29 01:46:59;;;;;;;31.50;5.30;;;;;;;5.18;100.00;102591.81;4887423;29;20039;-81
2022/04/29 01:49:25;;;;;;;25.05;5.63;;;;;;;5.10;100.00;102564.91;4886886;29;20061;-81
2022/04/29 01:51:50;;;;;;;15.90;3.40;;;;;;;5.12;100.00;102584.28;4887554;29;20036;-81
2022/04/29 01:54:15;;;;;;;21.08;4.38;;;;;;;5.02;100.00;102591.31;4885528;29;20040;-81
2022/04/29 01:56:41;;;;;;;21.63;5.03;;;;;;;4.77;100.00;102539.03;4886855;29;20033;-80
2022/04/29 01:59:07;;;;;;;16.10;3.83;;;;;;;5.14;100.00;102585.03;4885429;29;20139;-81
2022/04/29 02:01:34;;;;;;;19.38;4.20;;;;;;;5.03;100.00;102587.66;4886099;29;20028;-81
2022/04/29 02:04:00;;;;;;;28.92;6.40;;;;;;;5.05;100.00;102585.75;4887723;29;20053;-81
2022/04/29 02:06:26;;;;;;;28.60;6.80;;;;;;;5.14;100.00;102561.00;4885738;29;20089;-81
2022/04/29 02:08:51;;;;;;;28.38;6.32;;;;;;;5.42;100.00;102574.84;4886604;29;20409;-81
2022/04/29 02:11:17;;;;;;;23.13;6.18;;;;;;;5.35;100.00;102576.31;4887330;29;20037;-80
2022/04/29 02:13:45;;;;;;;32.85;6.47;;;;;;;5.28;100.00;102567.09;4886893;29;20037;-81
2022/04/29 02:16:10;;;;;;;29.92;7.50;;;;;;;5.26;100.00;102574.34;4888448;29;20259;-80
2022/04/29 02:18:36;;;;;;;35.72;6.30;;;;;;;5.25;100.00;102570.00;4886646;29;20124;-81
2022/04/29 02:21:01;;;;;;;28.15;6.82;;;;;;;5.27;100.00;102576.06;4871726;29;20048;-81
2022/04/29 02:23:27;;;;;;;23.58;6.18;;;;;;;5.25;100.00;102572.66;4886900;29;20156;-81
2022/04/29 02:25:52;;;;;;;24.17;5.78;;;;;;;5.19;100.00;102571.31;4872096;29;20447;-80
2022/04/29 02:28:17;;;;;;;41.15;7.20;;;;;;;5.22;100.00;102576.41;4895905;29;20029;-79
2022/04/29 02:30:43;;;;;;;28.23;6.78;;;;;;;5.39;100.00;102580.41;4888994;29;20037;-80
2022/04/29 02:33:08;;;;;;;24.98;6.25;;;;;;;5.36;100.00;102576.19;4885872;29;20037;-81
2022/04/29 02:35:33;;;;;;;28.00;6.38;;;;;;;5.29;100.00;102574.09;4886115;29;20474;-81
2022/04/29 02:37:59;;;;;;;28.65;6.43;;;;;;;5.28;100.00;102577.75;4887545;29;20029;-81
2022/04/29 02:40:24;;;;;;;25.40;6.40;;;;;;;5.26;100.00;102575.19;4876694;29;20044;-81
2022/04/29 02:42:50;;;;;;;22.25;5.90;;;;;;;5.16;100.00;102580.41;4895995;29;20069;-81
2022/04/29 02:45:15;;;;;;;33.30;7.05;;;;;;;4.96;100.00;102557.09;4888388;29;20452;-81
2022/04/29 02:47:41;;;;;;;22.10;6.70;;;;;;;5.00;100.00;102573.72;4886437;29;20040;-81
2022/04/29 02:50:07;;;;;;;30.30;7.50;;;;;;;5.00;100.00;102574.59;4884999;29;20037;-81
2022/04/29 02:52:32;;;;;;;29.00;6.93;;;;;;;4.85;100.00;102541.09;4885768;29;20100;-79
2022/04/29 02:54:57;;;;;;;25.05;6.65;;;;;;;4.99;100.00;102572.03;4885201;29;20067;-81
2022/04/29 02:57:23;;;;;;;21.05;5.80;;;;;;;4.91;100.00;102568.13;4884966;29;20040;-81
2022/04/29 02:59:48;;;;;;;21.10;5.65;;;;;;;4.87;100.00;102563.19;4887603;29;20028;-80
2022/04/29 03:02:13;;;;;;;25.65;6.78;;;;;;;4.79;100.00;102552.22;4885503;29;20033;-81
2022/04/29 03:04:39;;;;;;;22.17;6.90;;;;;;;4.83;100.00;102559.03;4854323;29;20040;-80
2022/04/29 03:07:04;;;;;;;27.38;6.70;;;;;;;4.79;100.00;102552.22;4884474;29;20071;-80
2022/04/29 03:09:31;;;;;;;28.02;7.18;;;;;;;4.76;100.00;102550.66;4883345;29;20064;-80
2022/04/29 03:11:56;;;;;;;24.08;6.30;;;;;;;4.59;100.00;102533.28;4885015;29;20060;-80
2022/04/29 03:14:22;;;;;;;22.42;6.10;;;;;;;4.67;100.00;102556.72;4884654;29;20432;-81
2022/04/29 03:16:48;;;;;;;26.90;7.57;;;;;;;4.71;100.00;102567.00;4886409;29;20033;-81
2022/04/29 03:19:14;;;;;;;23.55;7.57;;;;;;;4.74;100.00;102567.75;4883723;29;20052;-81
2022/04/29 03:21:39;;;;;;;26.83;7.60;;;;;;;4.78;100.00;102561.22;4869346;29;20045;-81
2022/04/29 03:24:05;;;;;;;18.33;7.78;;;;;;;4.81;100.00;102558.31;4886638;29;20037;-81
2022/04/29 03:26:31;;;;;;;27.75;7.07;;;;;;;4.65;100.00;102538.16;4887075;29;20041;-80
2022/04/29 03:28:56;;;;;;;21.80;6.70;;;;;;;4.46;100.00;102527.19;4869649;29;20069;-81
2022/04/29 03:31:22;;;;;;;28.20;8.18;;;;;;;4.65;100.00;102569.28;4887959;29;20336;-81
2022/04/29 03:33:47;;;;;;;25.70;8.20;;;;;;;4.68;100.00;102569.91;4897857;29;20075;-80
2022/04/29 03:36:14;;;;;;;28.58;7.43;;;;;;;4.75;100.00;102561.44;4888341;29;20046;-81
2022/04/29 03:38:40;;;;;;;19.50;7.15;;;;;;;4.78;100.00;102569.22;4871949;29;20405;-80
2022/04/29 03:41:07;;;;;;;23.63;7.53;;;;;;;4.83;100.00;102567.03;4887359;29;20107;-81
2022/04/29 03:43:33;;;;;;;36.53;9.02;;;;;;;4.87;100.00;102560.50;4885618;29;20029;-81
2022/04/29 03:45:59;;;;;;;21.38;7.97;;;;;;;4.89;100.00;102561.22;4884912;29;20037;-80
2022/04/29 03:48:24;;;;;;;18.27;7.53;;;;;;;4.90;100.00;102561.13;4890414;29;20029;-81
2022/04/29 03:50:49;;;;;;;24.13;6.35;;;;;;;4.90;100.00;102562.91;4894854;29;20037;-81
2022/04/29 03:53:15;;;;;;;23.80;8.18;;;;;;;4.69;100.00;102544.09;4884627;29;20341;-81
2022/04/29 03:55:40;;;;;;;26.20;7.90;;;;;;;4.80;100.00;102567.25;4887921;29;20040;-81
2022/04/29 03:58:07;;;;;;;26.98;7.80;;;;;;;4.66;100.00;102547.00;4887105;29;20029;-80
2022/04/29 04:00:33;;;;;;;29.15;7.72;;;;;;;4.75;100.00;102578.28;4887354;29;20037;-81
2022/04/29 04:03:00;;;;;;;30.25;8.70;;;;;;;4.75;100.00;102559.63;4889273;29;20029;-81
2022/04/29 04:05:26;;;;;;;33.47;7.88;;;;;;;4.83;100.00;102569.69;4888959;29;20029;-81
2022/04/29 04:07:52;;;;;;;29.10;8.63;;;;;;;4.91;100.00;102572.63;4888279;29;20085;-81
2022/04/29 04:10:17;;;;;;;17.80;7.30;;;;;;;4.91;100.00;102572.63;4890350;29;20037;-80
2022/04/29 04:12:48;;;;;;;19.08;6.68;;;;;;;4.75;100.00;102572.13;4888087;29;20033;-80
2022/04/29 04:15:16;;;;;;;25.90;7.28;;;;;;;4.58;100.00;102573.41;4905791;29;20032;-81
2022/04/29 04:17:43;;;;;;;25.42;7.68;;;;;;;4.50;100.00;102576.63;4890219;29;20033;-81
2022/04/29 04:20:09;;;;;;;23.20;6.68;;;;;;;4.52;100.00;102574.69;4887933;29;20452;-80
2022/04/29 04:22:36;;;;;;;14.57;5.20;;;;;;;4.50;100.00;102568.63;4889272;29;20060;-81
2022/04/29 04:25:06;;;;;;;22.38;7.10;;;;;;;4.52;100.00;102555.19;4886255;29;20033;-81
2022/04/29 04:27:32;;;;;;;21.63;7.40;;;;;;;4.64;100.00;102571.13;4887502;29;20029;-81
2022/04/29 04:29:59;;;;;;;25.02;8.43;;;;;;;4.76;100.00;102569.31;4888931;29;20028;-81
2022/04/29 04:32:28;;;;;;;24.02;8.38;;;;;;;4.90;100.00;102568.25;4887234;29;20047;-81
2022/04/29 04:34:55;;;;;;;17.00;5.97;;;;;;;5.50;100.00;102572.41;4869959;29;20034;-78
2022/04/29 04:37:21;;;;;;;19.05;6.97;;;;;;;5.92;100.00;102569.06;4871176;29;20040;-78
2022/04/29 04:39:48;;;;;;;20.48;6.53;;;;;;;6.69;100.00;102568.91;4892706;29;20057;-80
2022/04/29 04:42:14;;;;;;;24.60;7.30;;;;;;;7.36;100.00;102576.47;4890640;29;20025;-79
2022/04/29 04:44:40;;;;;;;16.42;7.20;;;;;;;8.08;100.00;102561.13;4889146;29;20033;-80
2022/04/29 04:47:05;;;;;;;28.98;7.85;;;;;;;8.90;100.00;102561.53;4888573;29;20025;-81
2022/04/29 04:49:31;;;;;;;18.60;7.03;;;;;;;9.45;100.00;102547.34;4890550;29;20081;-80
2022/04/29 04:51:57;;;;;;;21.30;7.50;;;;;;;10.04;100.00;102574.75;4890322;29;20061;-81
2022/04/29 04:54:23;;;;;;;18.58;6.45;;;;;;;10.46;100.00;102569.63;4893720;29;20359;-81
2022/04/29 04:56:48;;;;;;;19.27;6.72;;;;;;;10.95;100.00;102585.31;4898747;29;20040;-81
2022/04/29 04:59:13;;;;;;;14.30;6.10;;;;;;;10.66;100.00;102593.66;4901624;29;20056;-80
2022/04/29 05:01:39;;;;;;;19.65;6.70;;;;;;;10.07;100.00;102585.19;4902093;29;20013;-83
2022/04/29 05:04:04;;;;;;;16.77;6.50;;;;;;;9.17;100.00;102593.00;4901620;29;20106;-80
2022/04/29 05:06:30;;;;;;;17.77;6.18;;;;;;;8.52;100.00;102594.66;4894189;29;20061;-81
2022/04/29 05:08:55;;;;;;;18.25;6.50;;;;;;;8.24;100.00;102601.66;4898331;29;20041;-81
2022/04/29 05:11:20;;;;;;;15.82;6.10;;;;;;;8.23;100.00;102597.28;4903730;29;20058;-83
2022/04/29 05:18:55;;;;;;;24.00;7.63;;;;;;;7.00;100.00;102554.59;5319256;23;20061;-82
2022/04/29 05:23:56;;;;;;;25.10;8.65;;;;;;;7.39;100.00;102605.66;5092725;23;20050;-81
2022/04/29 05:26:21;;;;;;;21.38;8.82;;;;;;;7.58;100.00;102610.22;4855954;29;20112;-80
2022/04/29 05:28:47;;;;;;;21.52;8.35;;;;;;;7.74;100.00;102604.38;4876519;29;20029;-81
2022/04/29 05:31:13;;;;;;;16.77;7.65;;;;;;;7.86;100.00;102600.59;4886956;29;20040;-81
2022/04/29 05:33:39;;;;;;;22.45;8.20;;;;;;;7.92;100.00;102605.44;4891298;29;20040;-82
2022/04/29 05:36:05;;;;;;;20.10;7.40;;;;;;;8.03;100.00;102598.25;4886324;29;20030;-81
2022/04/29 05:43:59;;;;;;;19.40;7.25;;;;;;;9.02;100.00;102594.44;4873188;29;20041;-80
2022/04/29 05:46:24;;;;;;;25.15;9.25;;;;;;;9.39;100.00;102602.50;4878048;29;20101;-80
2022/04/29 05:48:50;;;;;;;28.42;8.20;;;;;;;9.59;100.00;102602.44;4874787;29;20037;-79
2022/04/29 05:51:15;;;;;;;26.38;9.15;;;;;;;9.57;100.00;102581.09;4873853;29;20033;-81
2022/04/29 05:53:40;;;;;;;27.50;8.57;;;;;;;9.71;100.00;102603.94;4866742;29;20456;-81
2022/04/29 05:56:06;;;;;;;22.17;9.13;;;;;;;9.70;100.00;102599.56;4862520;29;20388;-80
2022/04/29 05:58:31;;;;;;;20.98;7.72;;;;;;;9.64;100.00;102598.31;4864077;29;20097;-79
2022/04/29 06:00:58;;;;;;;26.33;6.05;;;;;;;9.72;100.00;102604.78;4869541;29;20116;-79
2022/04/29 06:03:24;;;;;;;24.73;6.95;;;;;;;9.67;100.00;102594.50;4876011;29;20535;-80
2022/04/29 06:05:49;;;;;;;23.48;6.10;;;;;;;9.60;100.00;102594.25;4860964;29;20063;-79
2022/04/29 06:08:15;;;;;;;22.20;7.40;;;;;;;9.53;100.00;102609.25;4878957;29;20547;-80
2022/04/29 06:10:40;;;;;;;19.05;6.82;;;;;;;9.51;100.00;102611.25;4873346;29;20112;-79
2022/04/29 06:13:05;;;;;;;20.05;6.80;;;;;;;9.75;100.00;102613.41;4879341;29;20067;-79
2022/04/29 06:15:31;;;;;;;23.85;6.70;;;;;;;9.85;100.00;102611.50;4871362;29;20029;-79
2022/04/29 06:17:56;;;;;;;21.08;5.60;;;;;;;10.05;100.00;102616.75;4881817;29;20033;-75
2022/04/29 06:20:22;;;;;;;25.35;5.60;;;;;;;9.91;100.00;102569.72;4848769;29;20046;-77
2022/04/29 06:22:47;;;;;;;26.20;5.78;;;;;;;10.35;100.00;102605.69;4857687;29;20148;-78
2022/04/29 06:25:13;;;;;;;24.88;4.95;;;;;;;10.46;100.00;102612.69;4862568;29;20033;-78
2022/04/29 06:27:39;;;;;;;16.90;4.25;;;;;;;10.56;100.00;102616.16;4862122;29;20036;-78
2022/04/29 06:30:05;;;;;;;22.33;5.05;;;;;;;10.72;100.00;102611.88;4860103;29;20081;-78
2022/04/29 06:32:30;;;;;;;24.17;6.13;;;;;;;10.93;100.00;102620.47;4864420;29;20097;-78
2022/04/29 06:34:56;;;;;;;19.45;5.10;;;;;;;10.96;100.00;102600.44;4875832;29;20034;-77
2022/04/29 06:37:21;;;;;;;26.02;6.68;;;;;;;11.10;100.00;102610.66;4861596;29;20100;-77
2022/04/29 06:39:47;;;;;;;22.23;5.53;;;;;;;11.27;100.00;102601.66;4862501;29;20040;-78
2022/04/29 06:42:13;;;;;;;17.95;5.00;;;;;;;11.66;100.00;102617.38;4861217;29;20033;-77
2022/04/29 06:44:38;;;;;;;20.77;5.50;;;;;;;11.72;100.00;102605.94;4857845;29;20045;-77
2022/04/29 06:47:04;;;;;;;23.70;5.65;;;;;;;11.98;100.00;102621.22;4866610;29;20033;-78
2022/04/29 06:49:29;;;;;;;17.05;5.18;;;;;;;12.07;100.00;102605.91;4865951;29;20071;-78
2022/04/29 06:51:55;;;;;;;17.48;5.32;;;;;;;12.29;100.00;102610.69;4869746;29;20047;-77
2022/04/29 06:54:20;;;;;;;16.73;5.28;;;;;;;12.38;100.00;102611.53;4860806;29;20035;-78
2022/04/29 06:56:45;;;;;;;17.73;5.32;;;;;;;12.47;100.00;102610.53;4869569;29;20072;-78
2022/04/29 06:59:11;;;;;;;22.70;5.63;;;;;;;12.60;100.00;102610.88;4864181;29;20041;-78
2022/04/29 07:01:36;;;;;;;13.40;4.70;;;;;;;12.70;100.00;102611.53;4863287;29;20113;-79
2022/04/29 07:04:02;;;;;;;19.95;5.00;;;;;;;12.90;100.00;102611.19;4862247;29;20021;-79
2022/04/29 07:06:27;;;;;;;17.50;5.07;;;;;;;13.09;100.00;102616.25;4861474;29;20029;-79
2022/04/29 07:08:53;;;;;;;13.57;4.80;;;;;;;13.01;100.00;102616.25;4859834;29;20121;-79
2022/04/29 07:11:18;;;;;;;16.85;4.85;;;;;;;12.82;100.00;102614.75;4857109;29;20433;-79
2022/04/29 07:13:43;;;;;;;12.05;4.43;;;;;;;12.79;100.00;102615.09;4858352;29;20025;-79
2022/04/29 07:16:09;;;;;;;14.60;4.50;;;;;;;12.89;100.00;102620.34;4860871;29;20057;-78
2022/04/29 07:18:36;;;;;;;18.00;4.90;;;;;;;12.66;100.00;102572.38;4885318;29;20037;-79
2022/04/29 07:21:02;;;;;;;20.08;5.13;;;;;;;13.01;100.00;102613.53;4879163;29;20040;-78
2022/04/29 07:23:28;;;;;;;19.27;5.40;;;;;;;12.89;100.00;102621.16;4875966;29;20540;-78
2022/04/29 07:25:53;;;;;;;13.05;4.35;;;;;;;12.74;100.00;102608.50;4878719;29;20049;-78
2022/04/29 07:28:18;;;;;;;14.32;4.55;;;;;;;12.84;100.00;102606.47;4878845;29;20056;-78
2022/04/29 07:30:45;;;;;;;15.35;4.72;;;;;;;12.77;100.00;102617.13;4881927;29;20070;-78
2022/04/29 07:33:10;;;;;;;16.20;4.38;;;;;;;12.80;100.00;102595.16;4874628;29;20570;-78
2022/04/29 07:43:48;;;;;;;9.35;3.40;;;;;;;13.28;100.00;102614.22;4883222;29;20036;-78
2022/04/29 07:46:14;;;;;;;13.65;3.38;;;;;;;13.36;100.00;102606.09;4866389;29;20022;-78
2022/04/29 07:48:39;;;;;;;13.90;3.47;;;;;;;13.47;100.00;102611.09;4864726;29;20037;-78
2022/04/29 07:51:06;;;;;;;16.45;3.67;;;;;;;13.50;100.00;102602.66;4863349;29;20097;-78
2022/04/29 07:53:31;;;;;;;11.15;3.10;;;;;;;13.57;100.00;102611.75;4863280;29;20026;-79
2022/04/29 07:55:57;;;;;;;17.15;3.30;;;;;;;13.51;100.00;102611.59;4863761;29;20420;-78
2022/04/29 07:58:23;;;;;;;12.35;3.00;;;;;;;13.62;100.00;102611.25;4873588;29;20060;-78
2022/04/29 08:00:49;;;;;;;14.07;3.45;;;;;;;13.56;100.00;102612.78;4878585;29;20037;-79
2022/04/29 08:03:14;;;;;;;9.93;2.70;;;;;;;13.50;100.00;102610.75;4885183;29;20371;-78
2022/04/29 08:05:40;;;;;;;12.57;2.50;;;;;;;13.46;100.00;102592.38;4864488;29;20475;-79
2022/04/29 08:08:05;;;;;;;11.73;2.67;;;;;;;13.45;100.00;102602.34;4863089;29;20404;-78
2022/04/29 08:10:32;;;;;;;8.63;2.35;;;;;;;13.45;100.00;102579.88;4870076;29;20112;-77
2022/04/29 08:12:59;;;;;;;11.95;2.58;;;;;;;13.65;100.00;102604.63;4882266;29;20057;-78
2022/04/29 08:15:28;;;;;;;9.50;2.22;;;;;;;13.74;100.00;102604.44;4871677;29;20037;-78
2022/04/29 08:17:53;;;;;;;7.47;2.03;;;;;;;13.68;100.00;102607.00;4864052;29;20057;-78
2022/04/29 08:20:19;;;;;;;9.65;2.78;;;;;;;13.54;100.00;102590.50;4863950;29;20141;-78
2022/04/29 08:22:44;;;;;;;10.55;2.22;;;;;;;13.80;100.00;102610.97;4863372;29;20120;-77
2022/04/29 08:25:10;;;;;;;12.90;3.08;;;;;;;13.94;100.00;102604.84;4863986;29;20076;-79
2022/04/29 08:27:35;;;;;;;14.70;2.60;;;;;;;13.89;100.00;102584.72;4885143;29;20033;-78
2022/04/29 08:30:01;;;;;;;7.82;2.10;;;;;;;14.09;100.00;102608.47;4883810;29;20032;-78
2022/04/29 08:32:27;;;;;;;12.60;2.55;;;;;;;14.23;100.00;102609.56;4872438;29;20030;-78
2022/04/29 08:34:52;;;;;;;10.13;2.35;;;;;;;14.19;100.00;102608.22;4863006;29;20564;-78
2022/04/29 08:37:20;;;;;;;13.57;2.22;;;;;;;14.07;100.00;102577.16;4862168;29;20060;-77
2022/04/29 08:39:46;;;;;;;8.82;2.22;;;;;;;14.16;100.00;102608.59;4876580;29;20337;-78
2022/04/29 08:42:11;;;;;;;10.63;2.53;;;;;;;14.12;100.00;102601.84;4863472;29;20062;-78
2022/04/29 08:44:40;;;;;;;8.25;2.45;;;;;;;14.23;100.00;102609.56;4861188;29;20025;-77
2022/04/29 08:47:08;;;;;;;12.57;2.35;;;;;;;14.36;100.00;102610.84;4862581;29;20048;-78
2022/04/29 08:49:35;;;;;;;10.25;2.20;;;;;;;14.11;100.00;102554.16;4870998;29;20037;-78
2022/04/29 08:52:01;;;;;;;13.68;2.65;;;;;;;14.62;100.00;102621.34;4881420;29;20041;-77
2022/04/29 09:00:04;;;;;;;8.82;2.35;;;;;;;15.04;100.00;102631.66;4861786;29;20158;-77
2022/04/29 09:02:37;;;;;;;10.40;2.38;;;;;;;15.09;100.00;102614.81;4861438;29;20041;-78
2022/04/29 09:05:02;;;;;;;11.98;2.40;;;;;;;15.29;100.00;102621.38;4861291;29;20429;-78
2022/04/29 09:07:54;;;;;;;13.73;2.55;;;;;;;15.55;100.00;102622.78;4856569;29;20097;-78
2022/04/29 09:10:21;;;;;;;9.75;2.22;;;;;;;15.72;100.00;102618.88;4866376;29;20153;-78
2022/04/29 09:12:47;;;;;;;10.25;2.65;;;;;;;15.99;100.00;102628.19;4862777;29;20033;-78
2022/04/29 09:15:14;;;;;;;11.93;2.28;;;;;;;16.09;100.00;102628.75;4874794;29;20048;-78
2022/04/29 09:17:47;;;;;;;9.63;2.50;;;;;;;16.09;98.13;102619.75;4863360;29;20056;-78
2022/04/29 09:20:16;;;;;;;13.15;2.70;;;;;;;16.21;99.25;102635.34;4862629;29;20369;-78
2022/04/29 09:22:46;;;;;;;13.52;2.85;;;;;;;16.28;98.16;102623.72;4861274;29;20170;-79
2022/04/29 09:25:11;;;;;;;7.53;2.15;;;;;;;16.23;95.98;102610.72;4864815;29;20531;-79
2022/04/29 09:28:00;;;;;;;13.13;2.85;;;;;;;16.44;93.73;102627.03;4861726;29;20032;-78
2022/04/29 09:30:32;;;;;;;17.80;2.60;;;;;;;16.39;95.63;102637.66;4863275;29;20096;-79
2022/04/29 09:32:58;;;;;;;14.98;3.03;;;;;;;16.27;95.50;102631.03;4863967;29;20021;-79
2022/04/29 09:35:37;;;;;;;10.43;2.60;;;;;;;16.26;93.86;102642.06;4879488;29;20037;-80
2022/04/29 09:40:48;;;;;;;18.00;4.10;;;;;;;16.23;95.28;102634.34;4868713;29;20040;-79
2022/04/29 09:43:13;;;;;;;17.40;11.50;;;;;;;16.24;94.12;102636.84;4868172;29;20033;-80
2022/04/29 09:45:39;;;;;;;10.00;3.20;;;;;;;16.20;92.56;102624.69;4863200;29;20034;-79
2022/04/29 09:48:08;;;;;;;9.18;2.30;;;;;;;16.06;92.04;102621.00;4863702;29;20375;-79
2022/04/29 09:50:50;;;;;;;10.70;2.20;;;;;;;16.14;87.37;102625.44;4861938;29;20036;-79
2022/04/29 09:53:21;;;;;;;12.60;2.63;;;;;;;16.29;88.83;102642.56;4861741;29;20037;-79
2022/04/29 09:56:11;;;;;;;7.95;2.00;;;;;;;16.26;88.32;102628.50;4862343;29;20068;-78
2022/04/29 09:58:37;;;;;;;11.60;2.47;;;;;;;16.21;89.03;102626.38;4862650;29;20025;-80
2022/04/29 10:01:06;;;;;;;11.68;2.33;;;;;;;16.23;88.94;102634.34;4867018;29;20096;-79
2022/04/29 10:03:35;;;;;;;9.00;2.50;;;;;;;15.95;88.13;102621.47;4877360;29;20025;-80
2022/04/29 10:06:02;;;;;;;10.85;2.22;;;;;;;16.14;87.94;102636.31;4864220;29;20029;-79
2022/04/29 10:08:31;;;;;;;8.35;1.98;;;;;;;16.16;86.32;102609.81;4863697;29;20396;-79
2022/04/29 10:10:58;;;;;;;11.35;2.35;;;;;;;16.19;84.48;102631.13;4863693;29;20029;-78
2022/04/29 10:13:26;;;;;;;7.40;1.60;;;;;;;16.16;83.27;102624.22;4863730;29;20492;-79
2022/04/29 10:15:53;;;;;;;7.57;1.60;;;;;;;16.12;79.19;102625.63;4869101;29;20051;-79
2022/04/29 10:23:48;;;;;;;7.63;1.75;;;;;;;15.41;62.46;102562.09;4854951;29;20065;-80
2022/04/29 10:26:15;;;;;;;6.93;1.52;;;;;;;15.89;62.29;102601.38;4858107;29;20041;-81
2022/04/29 10:28:41;;;;;;;9.98;2.00;;;;;;;15.60;63.80;102530.81;4858140;29;20087;-82
2022/04/29 10:31:07;;;;;;;10.00;2.30;;;;;;;16.14;64.99;102617.31;4861519;29;20034;-82
2022/04/29 10:33:34;;;;;;;7.85;1.95;;;;;;;16.01;64.88;102617.16;4861773;29;20105;-82
2022/04/29 10:36:07;;;;;;;9.18;1.98;;;;;;;15.68;64.46;102614.88;4862608;29;20026;-80
2022/04/29 10:38:35;;;;;;;8.27;1.77;;;;;;;15.44;64.95;102619.53;4850428;29;20117;-80
2022/04/29 10:41:07;;;;;;;9.00;2.28;;;;;;;15.42;65.93;102605.28;4853453;29;20090;-81
2022/04/29 10:43:52;;;;;;;9.13;1.77;;;;;;;15.38;66.21;102593.13;4860214;29;20026;-81
2022/04/29 10:46:37;;;;;;;9.82;2.17;;;;;;;15.40;65.39;102609.25;4857223;29;20048;-81
2022/04/29 10:49:30;;;;;;;8.30;1.50;;;;;;;15.38;65.28;102606.72;4856570;29;20108;-81
2022/04/29 10:52:01;;;;;;;11.07;1.80;;;;;;;15.21;63.97;102605.22;4846000;29;20130;-79
2022/04/29 10:54:46;;;;;;;5.35;1.45;;;;;;;15.34;63.57;102612.69;4846382;29;20063;-80
2022/04/29 10:57:14;;;;;;;4.95;1.30;;;;;;;15.30;62.44;102606.81;4858796;29;20065;-80
2022/04/29 10:59:54;;;;;;;4.85;1.83;;;;;;;14.92;62.18;102606.00;4851792;29;20072;-79
2022/04/29 11:02:26;;;;;;;8.43;2.17;;;;;;;14.70;62.94;102596.88;4844154;29;20081;-79
2022/04/29 11:04:52;;;;;;;7.00;2.08;;;;;;;14.73;63.55;102607.34;4842481;29;20029;-78
2022/04/29 11:07:38;;;;;;;9.13;1.60;;;;;;;14.63;63.51;102593.22;4851327;29;20010;-82
2022/04/29 11:10:06;;;;;;;7.95;1.77;;;;;;;14.90;62.81;102591.78;4863014;29;20057;-80
2022/04/29 11:12:33;;;;;;;8.75;1.65;;;;;;;14.93;63.56;102592.28;4856057;29;20037;-81
2022/04/29 11:15:12;;;;;;;7.18;1.92;;;;;;;15.08;64.19;102591.44;4847656;29;20026;-84
2022/04/29 11:17:39;;;;;;;9.68;2.08;;;;;;;15.15;63.86;102597.81;4871953;29;20055;-82
2022/04/29 11:20:20;;;;;;;7.07;1.77;;;;;;;15.04;64.98;102599.13;4859481;29;20057;-81
2022/04/29 11:26:10;;;;;;;10.95;2.13;;;;;;;15.41;65.35;102598.19;4879340;29;20057;-82
2022/04/29 11:28:36;;;;;;;9.40;2.00;;;;;;;15.41;64.93;102598.19;4876730;29;20009;-82
2022/04/29 11:31:08;;;;;;;9.50;2.50;;;;;;;15.02;64.46;102582.19;4869783;29;20094;-81
2022/04/29 11:33:34;;;;;;;9.55;1.90;;;;;;;15.03;64.80;102590.16;4871220;29;20021;-80
2022/04/29 11:36:05;;;;;;;7.93;1.60;;;;;;;14.81;63.16;102593.75;4853067;29;20660;-79
2022/04/29 11:38:31;;;;;;;7.28;1.50;;;;;;;14.59;63.58;102592.75;4869816;29;20022;-80
2022/04/29 11:40:59;;;;;;;6.18;2.00;;;;;;;14.49;64.58;102570.44;4861401;29;20093;-80
2022/04/29 11:43:24;;;;;;;7.78;1.80;;;;;;;14.82;64.81;102590.00;4877166;29;20062;-81
2022/04/29 11:46:01;;;;;;;9.02;1.90;;;;;;;14.92;64.72;102595.16;4877439;29;20033;-81
2022/04/29 11:48:27;;;;;;;7.78;1.88;;;;;;;14.86;64.15;102572.34;4869992;29;20926;-80
2022/04/29 11:50:56;;;;;;;6.68;1.40;;;;;;;14.70;63.78;102561.66;4871876;29;20055;-80
2022/04/29 11:53:22;;;;;;;6.32;1.85;;;;;;;14.68;62.99;102594.38;4880594;29;20511;-81
2022/04/29 11:55:50;;;;;;;7.43;2.33;;;;;;;14.61;62.57;102590.69;4868982;29;20059;-80